Cruise inventory

RRS Shackleton S7/79

Cruise summary report

Cruise Info. 
Ship name (ship code)RRS Shackleton (74SF)
Cruise identifierS7/79
Cruise period1979-08-03 — 1979-08-15
StatusCompleted
Port of departureBarry, United Kingdom
Port of returnBarry, United Kingdom
ObjectivesDeployment of current meter and bottom pressure recorder moorings. Conduct a CTD survey to ascertain water density distribution in the area 55-56N and 4-12W. Part of the studies of the Islay-Mull amphidrome, North Channel tidal dynamics and the shelf-edge tidal regime.
Chief scientistM John Howarth (Institute of Oceanographic Sciences Bidston Laboratory)
Cruise reportRRS Shackleton S7/79 cruise report ch14_79andshackleton7_79.pdf — access key 'C' (0.85 MB) 
Ocean/sea areas 
GeneralIrish Sea and St. George's Channel
North East Atlantic Ocean (limit 40W)
SpecificNorth Channel/Malin Shelf
Track chartsRRS Shackleton S7/79 cruise track — trk2323a.html RRS Shackleton S7/79 cruise track — trk2323b.html
Measurements 
Physical oceanography 
Surface measurements underway (T,S)Quantity: activity duration in days = 11
CTD stationsQuantity: number of stations = 98
Current metersQuantity: 21
Description: 45 days
Sea level (inc. bot. press., inverted echosounder)Quantity: 6
Description: 45 days
Data held at BODC 
Series/Profiles 
95  CTD/STD cast
Vertical spatial coordinates
Salinity of the water column
Temperature of the water column
Reference numbers
Vertical spatial coordinates
Salinity of the water column
Temperature of the water column
Reference numbers

BODC idDate/TimeLocationDoc.
5256011979-08-10 18:53  — 1979-08-10 18:55 56° 3' 47" N  6° 31' 39" W  View metadata report for BODC series reference number 525601
5256131979-08-10 23:12  — 1979-08-10 23:13 55° 52' 44" N  6° 55' 10" W  View metadata report for BODC series reference number 525613
5256251979-08-11 00:43  — 1979-08-11 00:44 55° 52' 56" N  7° 14' 55" W  View metadata report for BODC series reference number 525625
5256371979-08-11 02:05  — 1979-08-11 02:08 55° 53' 10" N  7° 34' 48" W  View metadata report for BODC series reference number 525637
5256491979-08-11 03:27  — 1979-08-11 03:31 56° 4' 16" N  7° 35' 19" W  View metadata report for BODC series reference number 525649
5256501979-08-11 05:04  — 1979-08-11 05:06 56° 4' 17" N  7° 15' 19" W  View metadata report for BODC series reference number 525650
5256621979-08-11 06:36  — 1979-08-11 06:39 56° 4' 10" N  6° 54' 2" W  View metadata report for BODC series reference number 525662
5256741979-08-11 10:19  — 1979-08-11 10:20 55° 52' 41" N  6° 33' 51" W  View metadata report for BODC series reference number 525674
5256861979-08-11 14:10  — 1979-08-11 14:11 55° 36' 19" N  6° 12' 19" W  View metadata report for BODC series reference number 525686
5256981979-08-11 17:46  — 1979-08-11 18:11 55° 30' 56" N  6° 50' 4" W  View metadata report for BODC series reference number 525698
5257051979-08-11 19:12  — 1979-08-11 19:19 55° 33' 6" N  7° 6' 15" W  View metadata report for BODC series reference number 525705
5257171979-08-11 20:36  — 1979-08-11 20:38 55° 36' 4" N  7° 23' 1" W  View metadata report for BODC series reference number 525717
5257291979-08-11 22:06  — 1979-08-11 22:09 55° 40' 3" N  7° 39' 45" W  View metadata report for BODC series reference number 525729
5257301979-08-11 23:09  — 1979-08-11 23:11 55° 33' 1" N  7° 34' 47" W  View metadata report for BODC series reference number 525730
5257421979-08-12 00:16  — 1979-08-12 00:18 55° 25' 28" N  7° 29' 44" W  View metadata report for BODC series reference number 525742
5257541979-08-12 02:47  — 1979-08-12 02:48 55° 20' 58" N  7° 0' 15" W  View metadata report for BODC series reference number 525754
5257661979-08-12 04:22  — 1979-08-12 04:24 55° 18' 9" N  6° 40' 18" W  View metadata report for BODC series reference number 525766
5257781979-08-12 05:55  — 1979-08-12 05:58 55° 24' 38" N  6° 28' 11" W  View metadata report for BODC series reference number 525778
5257911979-08-12 08:35  — 1979-08-12 08:37 55° 37' 2" N  6° 0' 15" W  View metadata report for BODC series reference number 525791
5258091979-08-12 09:46  — 1979-08-12 09:48 55° 44' 37" N  5° 53' 15" W  View metadata report for BODC series reference number 525809
5258101979-08-12 11:54  — 1979-08-12 11:58 55° 51' 51" N  5° 45' 42" W  View metadata report for BODC series reference number 525810
5258221979-08-12 18:20  — 1979-08-12 18:21 55° 30' 16" N  5° 50' 2" W  View metadata report for BODC series reference number 525822
5258341979-08-12 21:20  — 1979-08-12 21:21 55° 15' 2" N  5° 30' 17" W  View metadata report for BODC series reference number 525834
5258461979-08-12 22:40  — 1979-08-12 22:41 55° 5' 55" N  5° 22' 18" W  View metadata report for BODC series reference number 525846
5258581979-08-12 23:46  — 1979-08-12 23:47 54° 56' 39" N  5° 14' 48" W  View metadata report for BODC series reference number 525858
5258711979-08-13 02:07  — 1979-08-13 02:11 54° 57' 5" N  5° 35' 17" W  View metadata report for BODC series reference number 525871
5258831979-08-13 03:34  — 1979-08-13 03:36 55° 2' 17" N  5° 52' 22" W  View metadata report for BODC series reference number 525883
5258951979-08-13 04:30  — 1979-08-13 04:33 55° 10' 32" N  5° 58' 4" W  View metadata report for BODC series reference number 525895
5259021979-08-13 11:18  — 1979-08-13 11:21 54° 48' 58" N  5° 37' 45" W  View metadata report for BODC series reference number 525902
5259141979-08-13 11:59  — 1979-08-13 12:01 54° 45' 33" N  5° 35' 7" W  View metadata report for BODC series reference number 525914
5259261979-08-13 19:06  — 1979-08-13 19:07 54° 35' 3" N  4° 52' 42" W  View metadata report for BODC series reference number 525926
5259381979-08-13 21:28  — 1979-08-13 21:29 54° 35' 6" N  4° 22' 58" W  View metadata report for BODC series reference number 525938
5259511979-08-13 22:21  — 1979-08-13 22:22 54° 28' 58" N  4° 22' 52" W  View metadata report for BODC series reference number 525951
5259631979-08-14 00:02  — 1979-08-14 00:10 54° 28' 52" N  4° 41' 41" W  View metadata report for BODC series reference number 525963
5259751979-08-14 01:48  — 1979-08-14 01:52 54° 28' 54" N  5° 1' 16" W  View metadata report for BODC series reference number 525975
5259871979-08-14 03:14  — 1979-08-14 03:17 54° 29' 34" N  5° 20' 27" W  View metadata report for BODC series reference number 525987
5259991979-08-14 05:23  — 1979-08-14 05:24 54° 14' 57" N  5° 30' 2" W  View metadata report for BODC series reference number 525999
5260021979-08-14 07:00  — 1979-08-14 07:03 54° 15' 0" N  5° 8' 42" W  View metadata report for BODC series reference number 526002
5260141979-08-14 08:38  — 1979-08-14 08:39 54° 15' 8" N  4° 47' 52" W  View metadata report for BODC series reference number 526014
5260261979-08-14 12:58  — 1979-08-14 13:02 53° 50' 0" N  5° 26' 12" W  View metadata report for BODC series reference number 526026
5249841979-08-04 14:13  — 1979-08-04 14:15 54° 15' 7" N  5° 18' 4" W  View metadata report for BODC series reference number 524984
5249961979-08-04 15:20  — 1979-08-04 15:22 54° 22' 5" N  5° 18' 11" W  View metadata report for BODC series reference number 524996
5250111979-08-04 17:08  — 1979-08-04 17:10 54° 29' 32" N  5° 21' 58" W  View metadata report for BODC series reference number 525011
5250231979-08-04 18:06  — 1979-08-04 18:09 54° 31' 48" N  5° 11' 40" W  View metadata report for BODC series reference number 525023
5250351979-08-04 19:15  — 1979-08-04 19:24 54° 33' 27" N  5° 0' 51" W  View metadata report for BODC series reference number 525035
5250471979-08-04 20:19  — 1979-08-04 20:21 54° 35' 10" N  4° 50' 7" W  View metadata report for BODC series reference number 525047
5250591979-08-04 21:17  — 1979-08-04 21:20 54° 40' 30" N  5° 0' 13" W  View metadata report for BODC series reference number 525059
5250601979-08-04 22:30  — 1979-08-04 22:34 54° 40' 9" N  5° 15' 11" W  View metadata report for BODC series reference number 525060
5250721979-08-04 23:38  — 1979-08-04 23:40 54° 40' 12" N  5° 28' 15" W  View metadata report for BODC series reference number 525072
5250841979-08-05 00:46  — 1979-08-05 00:53 54° 43' 31" N  5° 18' 10" W  View metadata report for BODC series reference number 525084
5250961979-08-05 02:16  — 1979-08-05 02:19 54° 47' 1" N  5° 5' 25" W  View metadata report for BODC series reference number 525096
5251031979-08-05 03:51  — 1979-08-05 03:54 54° 47' 3" N  5° 23' 1" W  View metadata report for BODC series reference number 525103
5251151979-08-05 05:26  — 1979-08-05 05:28 54° 47' 3" N  5° 39' 49" W  View metadata report for BODC series reference number 525115
5251271979-08-05 10:24  — 1979-08-05 10:26 54° 58' 16" N  5° 36' 15" W  View metadata report for BODC series reference number 525127
5251391979-08-05 15:11  — 1979-08-05 15:13 54° 57' 43" N  5° 13' 55" W  View metadata report for BODC series reference number 525139
5251401979-08-05 20:40  — 1979-08-05 20:43 54° 49' 59" N  5° 38' 42" W  View metadata report for BODC series reference number 525140
5251521979-08-05 23:15  — 1979-08-05 23:19 55° 4' 20" N  5° 41' 15" W  View metadata report for BODC series reference number 525152
5251641979-08-06 00:21  — 1979-08-06 00:24 55° 10' 47" N  5° 46' 22" W  View metadata report for BODC series reference number 525164
5251761979-08-06 01:21  — 1979-08-06 01:24 55° 17' 25" N  5° 51' 10" W  View metadata report for BODC series reference number 525176
5251881979-08-06 02:06  — 1979-08-06 02:08 55° 22' 56" N  5° 56' 4" W  View metadata report for BODC series reference number 525188
5252071979-08-06 06:43  — 1979-08-06 06:45 55° 28' 52" N  5° 58' 3" W  View metadata report for BODC series reference number 525207
5252191979-08-06 08:04  — 1979-08-06 08:06 55° 35' 37" N  5° 54' 29" W  View metadata report for BODC series reference number 525219
5252201979-08-06 15:44  — 1979-08-06 15:47 55° 51' 44" N  5° 44' 44" W  View metadata report for BODC series reference number 525220
5252321979-08-06 21:27  — 1979-08-06 21:29 55° 27' 51" N  6° 9' 42" W  View metadata report for BODC series reference number 525232
5252441979-08-06 22:40  — 1979-08-06 22:44 55° 32' 4" N  6° 19' 25" W  View metadata report for BODC series reference number 525244
5252561979-08-06 23:25  — 1979-08-06 23:26 55° 36' 8" N  6° 30' 20" W  View metadata report for BODC series reference number 525256
5252681979-08-07 00:13  — 1979-08-07 00:13 55° 40' 25" N  6° 40' 31" W  View metadata report for BODC series reference number 525268
5252811979-08-07 01:03  — 1979-08-07 01:03 55° 44' 10" N  6° 50' 19" W  View metadata report for BODC series reference number 525281
5252931979-08-07 01:49  — 1979-08-07 01:50 55° 48' 6" N  6° 59' 46" W  View metadata report for BODC series reference number 525293
5253001979-08-07 02:42  — 1979-08-07 02:43 55° 52' 0" N  7° 9' 43" W  View metadata report for BODC series reference number 525300
5253121979-08-07 03:37  — 1979-08-07 03:38 55° 58' 16" N  7° 4' 48" W  View metadata report for BODC series reference number 525312
5253241979-08-07 04:32  — 1979-08-07 04:35 56° 4' 54" N  6° 58' 31" W  View metadata report for BODC series reference number 525324
5253361979-08-07 05:34  — 1979-08-07 05:35 55° 59' 43" N  6° 50' 40" W  View metadata report for BODC series reference number 525336
5253481979-08-07 06:40  — 1979-08-07 06:41 55° 55' 36" N  6° 40' 47" W  View metadata report for BODC series reference number 525348
5253731979-08-07 16:06  — 1979-08-07 16:08 55° 31' 0" N  6° 50' 10" W  View metadata report for BODC series reference number 525373
5253851979-08-07 21:14  — 1979-08-07 21:15 55° 25' 14" N  7° 30' 53" W  View metadata report for BODC series reference number 525385
5253971979-08-07 22:22  — 1979-08-07 22:23 55° 25' 10" N  7° 43' 18" W  View metadata report for BODC series reference number 525397
5254041979-08-07 23:28  — 1979-08-07 23:31 55° 25' 4" N  7° 55' 11" W  View metadata report for BODC series reference number 525404
5254161979-08-08 20:22  — 1979-08-08 20:25 55° 15' 0" N  10° 44' 1" W  View metadata report for BODC series reference number 525416
5254281979-08-09 10:44  — 1979-08-09 10:50 55° 40' 50" N  10° 0' 53" W  View metadata report for BODC series reference number 525428
5254411979-08-09 17:04  — 1979-08-09 17:07 55° 0' 11" N  0° 0' 53" W  View metadata report for BODC series reference number 525441
5254531979-08-09 21:26  — 1979-08-09 21:28 55° 15' 0" N  9° 0' 15" W  View metadata report for BODC series reference number 525453
5254651979-08-09 23:05  — 1979-08-09 23:08 55° 14' 58" N  8° 40' 28" W  View metadata report for BODC series reference number 525465
5254771979-08-10 00:34  — 1979-08-10 00:36 55° 14' 45" N  8° 20' 34" W  View metadata report for BODC series reference number 525477
5254891979-08-10 02:05  — 1979-08-10 02:06 55° 14' 52" N  7° 59' 54" W  View metadata report for BODC series reference number 525489
5254901979-08-10 02:57  — 1979-08-10 03:00 55° 20' 16" N  7° 59' 55" W  View metadata report for BODC series reference number 525490
5255081979-08-10 04:24  — 1979-08-10 04:26 55° 30' 4" N  7° 59' 57" W  View metadata report for BODC series reference number 525508
5255211979-08-10 05:46  — 1979-08-10 05:52 55° 40' 36" N  8° 0' 29" W  View metadata report for BODC series reference number 525521
5255331979-08-10 07:11  — 1979-08-10 07:18 55° 50' 10" N  7° 59' 51" W  View metadata report for BODC series reference number 525533
5255451979-08-10 08:34  — 1979-08-10 08:37 56° 0' 0" N  7° 59' 49" W  View metadata report for BODC series reference number 525545
5255571979-08-10 12:01  — 1979-08-10 12:10 56° 14' 56" N  7° 40' 22" W  View metadata report for BODC series reference number 525557
5255691979-08-10 13:31  — 1979-08-10 13:34 56° 14' 56" N  7° 19' 55" W  View metadata report for BODC series reference number 525569
5255701979-08-10 14:58  — 1979-08-10 15:00 56° 14' 52" N  7° 0' 27" W  View metadata report for BODC series reference number 525570
5255821979-08-10 16:19  — 1979-08-10 16:20 56° 15' 14" N  6° 44' 43" W  View metadata report for BODC series reference number 525582
5255941979-08-10 17:24  — 1979-08-10 17:25 56° 14' 51" N  6° 30' 45" W  View metadata report for BODC series reference number 525594